Time;durP1;ratioP1;P1;durP2;ratioP2;P2;SDS_P1;SDS_P2;PMS_P1;PMS_P2;Temp;Humidity;BMP_temperature;BMP_pressure;BME280_temperature;BME280_humidity;BME280_pressure;Samples;Min_cycle;Max_cycle;Signal;HPM_P1;HPM_P2
2022/06/13 04:02:42;;;;;;;5.10;4.00;;;16.60;99.90;;;;;;4953461;29;20549;-67
2022/06/13 04:05:18;;;;;;;4.60;4.13;;;16.60;99.90;;;;;;4954910;29;20440;-68
2022/06/13 04:07:45;;;;;;;8.17;4.40;;;16.60;99.90;;;;;;4954912;29;20474;-68
2022/06/13 04:10:15;;;;;;;6.57;3.73;;;16.60;99.90;;;;;;4954671;28;20459;-67
2022/06/13 04:12:56;;;;;;;4.70;3.80;;;16.50;99.90;;;;;;4958087;29;20439;-68
2022/06/13 04:15:49;;;;;;;7.53;4.40;;;16.60;99.90;;;;;;4958476;29;20949;-69
2022/06/13 04:18:37;;;;;;;4.23;3.67;;;16.60;99.90;;;;;;4958303;29;20467;-68
2022/06/13 04:21:14;;;;;;;7.20;4.00;;;16.60;99.90;;;;;;4958306;29;20595;-67
2022/06/13 04:23:49;;;;;;;6.07;3.90;;;16.60;99.90;;;;;;4958369;29;20447;-68
2022/06/13 04:26:21;;;;;;;5.50;4.10;;;16.50;99.90;;;;;;4958356;29;20448;-69
2022/06/13 04:28:54;;;;;;;8.53;4.50;;;16.60;99.90;;;;;;4957915;29;20504;-67
2022/06/13 04:31:22;;;;;;;6.90;4.37;;;16.70;99.90;;;;;;4958228;29;20475;-67
2022/06/13 04:33:58;;;;;;;8.00;4.50;;;16.70;99.90;;;;;;4958303;29;20471;-68
2022/06/13 04:36:26;;;;;;;11.83;4.50;;;16.80;99.90;;;;;;4958109;29;20446;-68
2022/06/13 04:38:58;;;;;;;8.70;4.13;;;16.80;99.90;;;;;;4957734;29;20475;-68
2022/06/13 04:41:28;;;;;;;7.50;3.73;;;16.80;99.90;;;;;;4957933;29;20480;-68
2022/06/13 04:43:58;;;;;;;8.23;4.87;;;16.80;99.90;;;;;;4957773;29;20464;-68
2022/06/13 04:46:28;;;;;;;7.60;4.40;;;16.90;99.90;;;;;;4958049;29;20456;-68
2022/06/13 04:48:59;;;;;;;7.10;4.10;;;17.00;99.90;;;;;;4958181;29;20531;-68
2022/06/13 04:51:30;;;;;;;8.37;4.63;;;17.00;99.90;;;;;;4958112;29;20479;-68
2022/06/13 04:54:01;;;;;;;6.60;4.07;;;17.00;99.90;;;;;;4958177;29;20444;-67
2022/06/13 04:56:29;;;;;;;6.30;3.37;;;17.10;99.90;;;;;;4957990;29;20436;-68
2022/06/13 04:58:58;;;;;;;8.80;4.00;;;17.10;99.90;;;;;;4957576;29;20475;-68
2022/06/13 05:01:28;;;;;;;5.70;4.23;;;17.10;99.90;;;;;;4957316;29;20487;-68
2022/06/13 05:03:58;;;;;;;7.30;4.80;;;17.20;99.90;;;;;;4957609;29;20487;-69
2022/06/13 05:06:31;;;;;;;5.87;4.27;;;17.30;99.90;;;;;;4957488;29;20447;-69
2022/06/13 05:09:03;;;;;;;7.73;3.87;;;17.40;99.90;;;;;;4957781;29;20447;-68
2022/06/13 05:11:35;;;;;;;7.90;4.00;;;17.50;99.90;;;;;;4958013;29;20482;-69
2022/06/13 05:14:07;;;;;;;5.03;3.77;;;17.50;99.90;;;;;;4958150;29;20444;-69
2022/06/13 05:16:47;;;;;;;8.40;3.80;;;17.70;99.90;;;;;;4957577;29;20448;-69
2022/06/13 05:19:37;;;;;;;7.73;4.53;;;17.70;99.90;;;;;;4957509;29;20463;-69
2022/06/13 05:22:19;;;;;;;4.83;3.93;;;17.90;99.90;;;;;;4960774;28;20476;-68
2022/06/13 05:25:02;;;;;;;9.27;3.93;;;17.90;99.90;;;;;;4969320;29;20444;-69
2022/06/13 05:27:29;;;;;;;4.50;3.70;;;18.00;99.90;;;;;;4957418;29;20439;-69
2022/06/13 05:29:56;;;;;;;6.27;4.30;;;18.10;99.90;;;;;;4957083;29;20451;-68
2022/06/13 05:32:24;;;;;;;4.50;3.93;;;18.30;99.90;;;;;;4956878;29;20479;-68
2022/06/13 05:34:53;;;;;;;4.70;3.20;;;18.30;99.90;;;;;;4957731;29;20482;-68
2022/06/13 05:37:20;;;;;;;9.10;3.87;;;18.40;99.90;;;;;;4956846;29;20958;-68
2022/06/13 05:39:47;;;;;;;9.23;3.90;;;18.30;99.90;;;;;;4956947;29;20486;-69
2022/06/13 05:42:14;;;;;;;4.60;3.63;;;18.30;99.90;;;;;;4956894;29;20547;-68
2022/06/13 05:44:41;;;;;;;6.13;3.93;;;18.30;99.90;;;;;;4956914;29;20466;-69
2022/06/13 05:47:14;;;;;;;7.37;4.40;;;18.40;99.90;;;;;;4956596;29;20856;-68
2022/06/13 05:49:41;;;;;;;5.70;3.40;;;18.40;99.90;;;;;;4956858;28;20440;-68
2022/06/13 05:52:09;;;;;;;8.43;3.33;;;18.40;99.90;;;;;;4962545;29;20475;-68
2022/06/13 05:54:36;;;;;;;10.57;4.33;;;18.50;99.90;;;;;;4964162;29;20884;-68
2022/06/13 05:57:03;;;;;;;7.40;3.70;;;18.50;99.90;;;;;;4960011;29;20463;-67
2022/06/13 05:59:29;;;;;;;10.63;4.20;;;18.50;99.90;;;;;;4956715;29;20479;-67
2022/06/13 06:01:56;;;;;;;6.87;3.53;;;18.60;99.90;;;;;;4956165;29;20490;-68
2022/06/13 06:04:23;;;;;;;4.90;3.57;;;18.70;99.90;;;;;;4956506;29;20459;-68
2022/06/13 06:06:50;;;;;;;6.17;3.83;;;18.70;99.90;;;;;;4956489;29;20463;-68
2022/06/13 06:09:18;;;;;;;7.47;3.63;;;18.70;99.90;;;;;;4956297;29;20464;-70
2022/06/13 06:11:44;;;;;;;5.50;4.00;;;18.80;99.90;;;;;;4956235;29;20487;-68
2022/06/13 06:14:11;;;;;;;17.63;4.83;;;18.90;99.90;;;;;;4956688;29;20475;-68
2022/06/13 06:16:38;;;;;;;4.87;3.37;;;19.00;99.90;;;;;;4956105;29;20466;-69
2022/06/13 06:19:04;;;;;;;6.40;3.77;;;19.10;99.90;;;;;;4956179;29;20482;-68
2022/06/13 06:21:31;;;;;;;3.63;3.10;;;19.10;99.90;;;;;;4955979;29;20475;-69
2022/06/13 06:23:58;;;;;;;10.83;3.30;;;19.20;99.90;;;;;;4956451;29;20460;-68
2022/06/13 06:26:27;;;;;;;4.50;3.20;;;19.30;99.90;;;;;;4956389;29;20464;-68
2022/06/13 06:28:54;;;;;;;6.83;3.40;;;19.40;99.90;;;;;;4956033;29;20490;-68
2022/06/13 06:31:20;;;;;;;9.30;3.60;;;19.40;99.90;;;;;;4955554;29;20480;-68
2022/06/13 06:33:47;;;;;;;4.80;2.50;;;19.70;99.90;;;;;;4955606;28;20460;-68
2022/06/13 06:36:14;;;;;;;5.30;3.60;;;19.80;99.90;;;;;;4956021;29;20479;-68
2022/06/13 06:38:42;;;;;;;3.90;3.10;;;20.00;99.90;;;;;;4956002;29;20466;-68
2022/06/13 06:41:08;;;;;;;4.13;3.13;;;20.20;99.90;;;;;;4956254;29;20479;-68
2022/06/13 06:43:36;;;;;;;4.33;3.00;;;20.40;99.90;;;;;;4955717;29;20460;-68
2022/06/13 06:46:04;;;;;;;5.47;3.30;;;20.60;99.90;;;;;;4955828;29;20463;-68
2022/06/13 06:48:30;;;;;;;6.70;3.07;;;20.90;99.90;;;;;;4955843;29;20828;-68
2022/06/13 06:50:57;;;;;;;9.40;3.90;;;21.00;99.90;;;;;;4955791;29;20475;-68
2022/06/13 06:53:26;;;;;;;4.30;2.87;;;21.10;99.90;;;;;;4955780;29;20455;-69
2022/06/13 07:01:23;;;;;;;11.40;3.47;;;21.20;99.90;;;;;;4955425;29;20485;-68
2022/06/13 07:03:50;;;;;;;3.80;3.10;;;21.30;99.90;;;;;;4955355;29;20828;-69
2022/06/13 07:06:17;;;;;;;7.90;3.27;;;21.70;99.90;;;;;;4955713;29;20459;-68
2022/06/13 07:08:44;;;;;;;4.67;3.27;;;22.00;99.90;;;;;;4955572;28;20481;-68
2022/06/13 07:14:02;;;;;;;8.67;2.73;;;22.90;99.90;;;;;;4955455;29;20788;-68
2022/06/13 07:16:29;;;;;;;4.20;3.00;;;23.60;99.90;;;;;;4955487;29;20462;-68
2022/06/13 07:18:56;;;;;;;5.90;3.30;;;23.90;99.90;;;;;;4955533;29;20451;-67
2022/06/13 07:21:22;;;;;;;5.03;2.90;;;24.20;99.90;;;;;;4955546;29;20488;-68
2022/06/13 07:23:49;;;;;;;7.90;2.80;;;24.70;99.90;;;;;;4955552;29;20463;-68
2022/06/13 07:26:16;;;;;;;5.63;3.07;;;25.00;99.60;;;;;;4955995;29;20460;-68
2022/06/13 07:28:43;;;;;;;4.50;3.43;;;25.40;98.80;;;;;;4955855;29;20459;-68
2022/06/13 07:31:18;;;;;;;3.50;2.33;;;25.60;98.00;;;;;;4955978;29;20479;-68
2022/06/13 07:33:45;;;;;;;6.70;3.13;;;26.00;97.00;;;;;;4955523;29;20498;-68
2022/06/13 07:36:12;;;;;;;4.30;2.70;;;26.50;94.70;;;;;;4956157;29;20459;-67
2022/06/13 07:38:38;;;;;;;4.90;2.83;;;26.40;93.20;;;;;;4955252;29;20463;-69
2022/06/13 07:41:06;;;;;;;4.77;2.40;;;26.40;93.40;;;;;;4955103;29;20483;-68
2022/06/13 07:43:35;;;;;;;7.83;2.90;;;26.60;92.80;;;;;;4955526;29;20554;-69
2022/06/13 07:46:04;;;;;;;5.10;2.70;;;26.70;92.10;;;;;;4956218;28;20459;-68
2022/06/13 07:48:33;;;;;;;5.73;2.40;;;26.70;91.80;;;;;;4958846;29;20573;-68
2022/06/13 07:51:01;;;;;;;4.13;2.93;;;26.70;90.90;;;;;;4958732;29;20498;-68
2022/06/13 07:53:28;;;;;;;6.10;3.23;;;26.80;92.10;;;;;;4958895;29;20459;-69
2022/06/13 07:55:54;;;;;;;3.70;2.60;;;27.30;92.80;;;;;;4958764;29;20462;-69
2022/06/13 07:58:26;;;;;;;4.50;2.70;;;27.50;90.40;;;;;;4958701;29;20835;-67
2022/06/13 08:00:53;;;;;;;5.63;2.67;;;27.70;86.10;;;;;;4958619;29;20553;-68
2022/06/13 08:03:23;;;;;;;5.27;3.03;;;27.50;87.10;;;;;;4958661;29;20459;-68
2022/06/13 08:05:52;;;;;;;7.60;3.97;;;27.30;85.80;;;;;;4958760;29;20450;-68
2022/06/13 08:08:19;;;;;;;4.80;2.63;;;27.50;84.00;;;;;;4958702;29;20466;-68
2022/06/13 08:10:48;;;;;;;5.57;2.77;;;27.70;82.20;;;;;;4958386;29;20480;-68
2022/06/13 08:13:17;;;;;;;5.40;3.00;;;27.90;81.20;;;;;;4958681;29;20455;-68
2022/06/13 08:15:44;;;;;;;7.20;3.13;;;28.10;78.40;;;;;;4958599;29;20510;-68
2022/06/13 08:18:12;;;;;;;7.70;2.97;;;28.20;78.00;;;;;;4958708;29;20461;-68
2022/06/13 08:20:40;;;;;;;4.07;2.70;;;28.40;79.40;;;;;;4958206;28;20510;-69
2022/06/13 08:23:10;;;;;;;3.23;2.23;;;28.80;77.80;;;;;;4958378;29;20459;-68
2022/06/13 08:25:37;;;;;;;5.30;2.63;;;29.00;78.90;;;;;;4958587;29;20444;-68
2022/06/13 08:28:05;;;;;;;4.90;2.60;;;29.30;76.70;;;;;;4958226;29;20490;-68
2022/06/13 08:30:37;;;;;;;5.43;2.70;;;29.50;72.60;;;;;;4958853;29;20463;-68
2022/06/13 08:33:05;;;;;;;6.03;2.43;;;29.40;73.40;;;;;;4958537;29;20495;-68
2022/06/13 08:35:31;;;;;;;6.63;2.97;;;29.40;78.20;;;;;;4958352;29;20452;-68
2022/06/13 08:37:58;;;;;;;4.50;3.07;;;29.80;74.80;;;;;;4958021;29;20991;-68
2022/06/13 08:40:32;;;;;;;4.30;3.00;;;30.00;73.20;;;;;;4958168;29;20532;-68
2022/06/13 08:43:09;;;;;;;5.70;3.00;;;30.40;69.70;;;;;;4958185;29;20436;-68
2022/06/13 08:45:43;;;;;;;7.30;3.07;;;30.20;66.90;;;;;;4958045;29;20451;-69
2022/06/13 08:48:17;;;;;;;5.70;3.60;;;29.50;67.00;;;;;;4958536;29;20470;-68
2022/06/13 08:50:51;;;;;;;2.77;2.30;;;29.60;70.40;;;;;;4958159;29;20571;-68
2022/06/13 08:53:22;;;;;;;6.20;3.30;;;29.90;71.60;;;;;;4958451;29;20961;-68
2022/06/13 08:55:55;;;;;;;6.50;2.80;;;29.70;66.60;;;;;;4961435;29;20448;-68
2022/06/13 08:58:28;;;;;;;4.53;2.67;;;29.60;70.10;;;;;;4963115;28;20443;-68
2022/06/13 09:00:58;;;;;;;3.17;2.50;;;29.50;67.70;;;;;;4959722;29;20491;-68
2022/06/13 09:03:32;;;;;;;6.30;3.27;;;29.50;68.20;;;;;;4958948;29;20464;-69
2022/06/13 09:06:05;;;;;;;5.80;2.53;;;29.30;71.80;;;;;;4958005;29;20839;-68
2022/06/13 09:08:40;;;;;;;4.20;2.77;;;28.90;69.40;;;;;;4957863;29;20439;-69
2022/06/13 09:11:18;;;;;;;5.10;2.80;;;29.50;69.50;;;;;;4957816;29;20977;-69
2022/06/13 09:13:49;;;;;;;6.63;3.03;;;29.80;67.50;;;;;;4957848;29;20444;-69
2022/06/13 09:16:21;;;;;;;11.10;3.57;;;30.50;67.80;;;;;;4957710;28;20451;-69
2022/06/13 09:18:52;;;;;;;6.80;3.27;;;30.90;62.20;;;;;;4958757;29;20436;-69
2022/06/13 09:21:26;;;;;;;3.87;2.40;;;31.30;65.50;;;;;;4957314;29;20491;-69
2022/06/13 09:24:03;;;;;;;7.57;3.20;;;31.40;62.50;;;;;;4957584;29;20452;-69
2022/06/13 09:26:36;;;;;;;8.13;2.97;;;31.30;59.80;;;;;;4957821;29;20450;-68
2022/06/13 09:29:12;;;;;;;7.00;2.63;;;31.40;61.60;;;;;;4958234;29;20440;-69
2022/06/13 09:31:43;;;;;;;5.67;2.70;;;31.70;62.20;;;;;;4957535;29;20909;-69
2022/06/13 09:34:14;;;;;;;5.73;3.00;;;31.60;60.10;;;;;;4956744;29;20915;-68
2022/06/13 09:36:52;;;;;;;2.80;2.40;;;31.50;57.50;;;;;;4957077;29;20451;-68
2022/06/13 09:39:19;;;;;;;8.53;2.53;;;31.80;60.50;;;;;;4957195;29;20443;-69
2022/06/13 09:42:01;;;;;;;5.00;2.40;;;31.80;58.30;;;;;;4956930;29;20507;-68
2022/06/13 09:44:37;;;;;;;6.70;2.37;;;31.90;57.40;;;;;;4957928;29;20469;-68
2022/06/13 09:47:15;;;;;;;3.03;2.43;;;31.30;56.20;;;;;;4969807;29;20447;-69
2022/06/13 09:49:53;;;;;;;4.30;2.90;;;30.80;57.70;;;;;;4967061;29;20447;-69
2022/06/13 09:52:29;;;;;;;4.90;2.47;;;30.00;58.70;;;;;;4957639;29;20479;-69
2022/06/13 09:55:06;;;;;;;8.00;3.23;;;29.60;62.90;;;;;;4957120;29;20502;-68
2022/06/13 09:57:44;;;;;;;5.10;2.40;;;29.50;60.60;;;;;;4957089;29;20463;-68
2022/06/13 10:00:15;;;;;;;3.90;2.47;;;29.60;62.60;;;;;;4956377;29;20486;-69
2022/06/13 10:02:50;;;;;;;4.60;2.40;;;29.30;58.30;;;;;;4956524;29;20436;-68
2022/06/13 10:05:31;;;;;;;3.20;2.40;;;29.40;64.00;;;;;;4956904;29;20435;-68
2022/06/13 10:08:06;;;;;;;2.70;2.50;;;29.90;58.60;;;;;;4956556;28;20926;-68
2022/06/13 10:10:41;;;;;;;5.13;3.00;;;30.40;58.20;;;;;;4959102;29;20435;-68
2022/06/13 10:13:20;;;;;;;2.90;2.70;;;30.60;58.10;;;;;;4967029;29;20440;-69
2022/06/13 10:15:56;;;;;;;3.97;2.60;;;30.70;58.70;;;;;;4956045;29;20800;-69
2022/06/13 10:18:35;;;;;;;3.53;2.60;;;31.00;58.40;;;;;;4956280;29;20440;-69
2022/06/13 10:21:11;;;;;;;3.20;2.90;;;31.80;57.10;;;;;;4956284;29;20495;-68
2022/06/13 10:23:46;;;;;;;3.53;2.40;;;31.90;55.10;;;;;;4956898;28;20812;-69
2022/06/13 10:26:20;;;;;;;4.13;2.20;;;32.10;56.20;;;;;;4956417;29;20854;-69
2022/06/13 10:29:17;;;;;;;3.37;2.13;;;31.40;52.00;;;;;;4955563;29;20550;-69
2022/06/13 10:32:01;;;;;;;5.00;2.70;;;30.90;53.00;;;;;;4955651;29;20472;-70
2022/06/13 10:34:38;;;;;;;2.07;1.73;;;30.70;54.10;;;;;;4956298;29;20435;-68
2022/06/13 10:37:16;;;;;;;6.33;2.23;;;30.30;54.90;;;;;;4956061;29;20479;-69
2022/06/13 10:39:44;;;;;;;4.10;2.93;;;30.20;52.90;;;;;;4955957;29;20443;-69
2022/06/13 10:42:18;;;;;;;4.00;2.00;;;30.40;53.90;;;;;;4955415;29;20542;-68
2022/06/13 10:44:47;;;;;;;3.43;2.20;;;30.30;51.40;;;;;;4955648;29;20436;-69
2022/06/13 10:47:19;;;;;;;3.53;1.67;;;30.10;51.80;;;;;;4956011;29;20459;-69
2022/06/13 10:49:50;;;;;;;4.73;1.97;;;30.50;53.10;;;;;;4955895;29;20439;-69
2022/06/13 10:52:21;;;;;;;3.30;2.30;;;30.90;52.60;;;;;;4955705;29;20479;-69
2022/06/13 10:54:54;;;;;;;4.30;3.47;;;31.30;54.40;;;;;;4955573;29;20814;-69
2022/06/13 10:57:28;;;;;;;3.50;2.17;;;31.50;53.30;;;;;;4955545;29;20444;-69
2022/06/13 11:00:16;;;;;;;2.87;1.90;;;32.00;50.00;;;;;;4955865;29;20444;-68
2022/06/13 11:02:44;;;;;;;2.20;1.87;;;32.40;50.60;;;;;;4955776;29;20453;-68
2022/06/13 11:05:12;;;;;;;3.30;2.30;;;32.50;51.30;;;;;;4955457;29;20816;-68
2022/06/13 11:07:46;;;;;;;3.40;2.10;;;32.40;50.40;;;;;;4955670;29;20455;-68
2022/06/13 11:10:33;;;;;;;3.80;2.20;;;32.10;50.20;;;;;;4955821;29;20441;-67
2022/06/13 11:13:02;;;;;;;3.43;3.10;;;31.80;51.00;;;;;;4955813;29;20443;-66
2022/06/13 11:24:12;;;;;;;4.10;1.90;;;31.60;51.30;;;;;;4959414;29;20867;-66
2022/06/13 11:29:25;;;;;;;3.37;2.27;;;30.10;54.00;;;;;;4959468;29;20427;-67
2022/06/13 11:31:55;;;;;;;4.60;2.27;;;29.70;52.40;;;;;;4959118;29;20472;-66
2022/06/13 11:34:29;;;;;;;2.47;2.20;;;29.40;51.40;;;;;;4959239;29;20451;-66
2022/06/13 11:37:02;;;;;;;3.93;2.13;;;29.30;52.60;;;;;;4959137;29;20847;-66
2022/06/13 11:39:35;;;;;;;3.20;1.90;;;28.90;52.70;;;;;;4959805;29;20463;-66
2022/06/13 11:42:04;;;;;;;2.27;2.07;;;28.40;52.60;;;;;;4958857;29;20559;-66
2022/06/13 11:44:32;;;;;;;4.70;2.20;;;28.00;53.40;;;;;;4959128;29;20463;-66
2022/06/13 11:47:01;;;;;;;3.70;2.00;;;27.90;53.60;;;;;;4958943;29;20466;-66
2022/06/13 11:49:33;;;;;;;2.43;2.23;;;27.60;53.20;;;;;;4959023;29;20526;-66
2022/06/13 11:52:05;;;;;;;5.03;2.70;;;27.30;55.20;;;;;;4958598;29;20506;-66
2022/06/13 11:54:35;;;;;;;2.30;1.90;;;26.90;56.60;;;;;;4959082;29;20450;-66
2022/06/13 11:57:22;;;;;;;6.30;2.30;;;26.80;56.10;;;;;;4962221;29;20909;-66
2022/06/13 11:59:53;;;;;;;4.30;2.23;;;26.80;56.30;;;;;;4965192;29;20443;-67
2022/06/13 12:02:25;;;;;;;4.07;2.90;;;27.00;55.90;;;;;;4965333;29;20487;-67
2022/06/13 12:04:55;;;;;;;4.60;2.17;;;27.20;60.80;;;;;;4959873;29;20439;-66
2022/06/13 12:07:24;;;;;;;4.20;2.60;;;27.60;57.90;;;;;;4958737;29;20450;-67
2022/06/13 12:09:56;;;;;;;3.63;1.97;;;27.70;56.40;;;;;;4958936;29;20451;-66
2022/06/13 12:12:26;;;;;;;3.43;2.13;;;27.70;55.30;;;;;;4958830;29;20484;-68
2022/06/13 12:14:53;;;;;;;2.20;2.00;;;28.00;58.10;;;;;;4958529;28;20447;-68
2022/06/13 12:17:26;;;;;;;4.03;2.33;;;28.30;57.70;;;;;;4959046;29;20450;-67
2022/06/13 12:20:02;;;;;;;3.73;2.00;;;28.70;56.20;;;;;;4959280;29;20927;-68
2022/06/13 12:22:37;;;;;;;2.30;1.80;;;28.30;53.60;;;;;;4959517;29;20522;-67
2022/06/13 12:25:12;;;;;;;3.80;1.90;;;28.00;56.90;;;;;;4960029;29;20843;-67
2022/06/13 12:27:47;;;;;;;4.70;2.13;;;27.80;54.60;;;;;;4959961;29;20814;-67
2022/06/13 12:30:35;;;;;;;6.20;2.73;;;27.60;56.90;;;;;;4959264;29;20494;-66
2022/06/13 12:33:17;;;;;;;4.87;2.77;;;27.20;55.10;;;;;;4955834;28;20463;-68
2022/06/13 12:36:02;;;;;;;3.67;2.30;;;26.90;56.30;;;;;;4958727;29;20444;-67
2022/06/13 12:39:08;;;;;;;4.30;2.00;;;26.70;57.60;;;;;;4958164;29;20451;-66
2022/06/13 12:41:42;;;;;;;2.57;1.80;;;26.50;57.70;;;;;;4957930;29;20497;-67
2022/06/13 12:44:37;;;;;;;1.93;1.80;;;26.40;57.70;;;;;;4957957;29;20444;-67
2022/06/13 12:47:31;;;;;;;3.13;1.97;;;26.10;55.80;;;;;;4957558;29;20467;-65
2022/06/13 12:50:33;;;;;;;2.30;1.70;;;25.90;54.50;;;;;;4956623;29;20463;-66
2022/06/13 12:53:21;;;;;;;2.57;1.87;;;26.10;56.80;;;;;;4958041;29;20444;-66
2022/06/13 12:55:53;;;;;;;1.87;1.53;;;26.50;55.40;;;;;;4957991;28;20443;-66
2022/06/13 12:58:38;;;;;;;2.20;2.00;;;26.70;56.00;;;;;;4957716;29;20432;-66
2022/06/13 13:01:11;;;;;;;2.63;1.50;;;26.50;55.50;;;;;;4957344;28;20495;-65
2022/06/13 13:03:57;;;;;;;2.40;1.90;;;26.30;54.80;;;;;;4957721;29;20447;-65
2022/06/13 13:06:36;;;;;;;1.80;1.70;;;26.10;56.10;;;;;;4957528;29;20450;-66
2022/06/13 13:09:18;;;;;;;3.33;1.70;;;26.10;56.20;;;;;;4966921;29;20444;-66
2022/06/13 13:12:04;;;;;;;2.20;1.70;;;26.10;55.80;;;;;;4966271;29;20563;-66
2022/06/13 13:14:41;;;;;;;3.27;1.90;;;26.30;57.00;;;;;;4957739;29;20870;-66
2022/06/13 13:17:21;;;;;;;2.17;1.83;;;26.80;56.80;;;;;;4957300;29;20467;-66
2022/06/13 13:19:54;;;;;;;3.90;1.90;;;26.70;56.40;;;;;;4957406;29;20495;-66
2022/06/13 13:22:30;;;;;;;4.63;2.20;;;26.90;55.30;;;;;;4957298;29;20848;-66
2022/06/13 13:25:08;;;;;;;2.33;1.80;;;27.00;54.80;;;;;;4957391;29;20440;-66
2022/06/13 13:27:44;;;;;;;2.83;2.10;;;27.00;54.40;;;;;;4957364;28;20440;-66
2022/06/13 13:30:19;;;;;;;2.63;1.80;;;26.80;53.70;;;;;;4957017;29;20443;-66
2022/06/13 13:33:09;;;;;;;2.10;1.60;;;26.80;54.10;;;;;;4957154;29;20446;-66
2022/06/13 13:35:43;;;;;;;2.00;1.77;;;26.70;54.10;;;;;;4957093;29;20440;-66
2022/06/13 13:38:17;;;;;;;3.97;1.73;;;26.80;55.50;;;;;;4956948;29;20514;-66
2022/06/13 13:40:48;;;;;;;2.43;2.00;;;27.00;55.60;;;;;;4956741;29;20517;-66
2022/06/13 13:43:23;;;;;;;2.33;2.10;;;27.30;54.60;;;;;;4956275;28;20440;-67
2022/06/13 13:45:56;;;;;;;2.17;1.97;;;27.20;54.80;;;;;;4956474;29;20450;-65
2022/06/13 13:48:27;;;;;;;6.23;1.70;;;27.10;54.30;;;;;;4956722;29;20449;-67
2022/06/13 13:51:00;;;;;;;2.13;1.90;;;26.70;53.70;;;;;;4956605;29;20486;-66
2022/06/13 13:53:34;;;;;;;2.53;1.90;;;26.80;55.90;;;;;;4956673;29;20448;-66
2022/06/13 13:56:07;;;;;;;3.93;2.13;;;26.60;54.90;;;;;;4956576;29;20495;-66
2022/06/13 13:58:35;;;;;;;5.30;2.40;;;26.40;55.30;;;;;;4956800;29;20475;-66
2022/06/13 14:01:16;;;;;;;3.90;1.67;;;26.60;57.70;;;;;;4955940;29;20930;-66
2022/06/13 14:03:54;;;;;;;4.93;2.17;;;26.80;56.80;;;;;;4956484;29;20443;-66
2022/06/13 14:06:35;;;;;;;4.53;2.03;;;27.00;53.60;;;;;;5091779;27;20518;-66
2022/06/13 14:09:02;;;;;;;1.70;1.60;;;27.20;52.40;;;;;;5090846;28;20429;-66
2022/06/13 14:11:29;;;;;;;2.40;1.83;;;27.50;53.10;;;;;;5090971;28;20536;-66
2022/06/13 14:14:02;;;;;;;3.47;1.80;;;27.50;53.90;;;;;;5091095;28;20452;-66
2022/06/13 14:16:40;;;;;;;2.10;1.50;;;27.30;53.30;;;;;;5091131;28;20438;-65
2022/06/13 14:19:21;;;;;;;5.70;2.17;;;27.10;54.40;;;;;;5090984;28;20434;-66
2022/06/13 14:22:15;;;;;;;1.90;1.80;;;26.80;54.30;;;;;;5090573;28;20565;-66
2022/06/13 14:24:53;;;;;;;2.60;1.80;;;26.70;54.40;;;;;;5091750;28;20453;-66
2022/06/13 14:27:20;;;;;;;4.73;2.07;;;26.40;54.20;;;;;;5090627;28;20974;-66
2022/06/13 14:29:48;;;;;;;3.10;2.10;;;26.50;56.00;;;;;;5090818;28;20453;-66
2022/06/13 14:32:31;;;;;;;2.10;1.90;;;26.70;57.00;;;;;;5090321;28;20473;-66
2022/06/13 14:35:11;;;;;;;3.33;1.60;;;26.90;54.80;;;;;;5090727;28;20434;-66
2022/06/13 14:38:16;;;;;;;2.43;2.10;;;27.10;54.60;;;;;;5090349;28;20861;-66
2022/06/13 14:40:46;;;;;;;3.33;2.00;;;27.30;55.20;;;;;;5090616;28;20526;-66
2022/06/13 14:43:28;;;;;;;3.77;2.50;;;26.90;54.20;;;;;;5090676;28;20508;-66
2022/06/13 14:45:59;;;;;;;2.73;1.90;;;26.70;54.10;;;;;;5090463;28;20466;-66
2022/06/13 14:48:38;;;;;;;3.33;2.10;;;26.70;54.20;;;;;;5090687;28;20487;-66
2022/06/13 14:51:24;;;;;;;2.17;1.97;;;26.70;56.20;;;;;;5090499;28;20559;-67
2022/06/13 14:53:53;;;;;;;4.90;2.20;;;26.70;54.60;;;;;;5090945;28;20438;-67
2022/06/13 14:56:44;;;;;;;3.33;2.10;;;26.70;55.70;;;;;;5090389;28;20456;-67
2022/06/13 14:59:14;;;;;;;2.83;2.20;;;26.90;56.50;;;;;;5075276;28;20461;-67
2022/06/13 15:01:44;;;;;;;3.20;1.90;;;27.00;56.00;;;;;;5092806;28;20468;-67
2022/06/13 15:04:20;;;;;;;5.00;1.83;;;27.10;54.80;;;;;;5091806;28;20445;-66
2022/06/13 15:07:17;;;;;;;2.23;2.07;;;27.30;55.40;;;;;;5090519;28;20767;-67
2022/06/13 15:09:49;;;;;;;3.07;2.10;;;27.50;56.40;;;;;;5090264;28;20433;-66
2022/06/13 15:12:20;;;;;;;3.07;1.83;;;27.50;54.90;;;;;;5089952;28;20480;-66
2022/06/13 15:14:50;;;;;;;4.40;1.93;;;27.30;53.90;;;;;;5089682;28;20921;-67
2022/06/13 15:17:18;;;;;;;3.23;2.40;;;27.30;55.60;;;;;;5079573;28;20450;-66
2022/06/13 15:19:48;;;;;;;4.63;1.60;;;27.30;55.30;;;;;;5076047;28;20851;-66
2022/06/13 15:22:19;;;;;;;3.03;2.00;;;27.40;54.30;;;;;;5076337;28;20473;-65
2022/06/13 15:24:51;;;;;;;2.00;1.90;;;27.40;54.20;;;;;;5076655;28;20497;-66
2022/06/13 15:27:18;;;;;;;1.90;1.80;;;27.50;56.10;;;;;;5076483;28;20446;-65
2022/06/13 15:30:14;;;;;;;2.30;1.70;;;27.40;54.20;;;;;;5075987;28;20822;-66
2022/06/13 15:32:42;;;;;;;1.67;1.57;;;27.50;56.30;;;;;;5076568;28;20438;-67
2022/06/13 15:35:12;;;;;;;2.53;1.93;;;27.60;52.50;;;;;;5076313;28;20448;-67
2022/06/13 15:37:42;;;;;;;2.23;2.03;;;27.50;52.20;;;;;;5075804;28;20455;-67
2022/06/13 15:40:20;;;;;;;1.70;1.60;;;27.50;53.70;;;;;;5076301;28;20450;-67
2022/06/13 15:42:50;;;;;;;3.20;1.97;;;27.50;54.30;;;;;;5076943;28;20434;-67
2022/06/13 15:45:17;;;;;;;4.33;2.60;;;27.30;52.50;;;;;;5075655;28;20542;-68
2022/06/13 15:47:46;;;;;;;2.53;2.33;;;27.10;53.40;;;;;;5076034;28;20508;-67
2022/06/13 15:50:18;;;;;;;2.30;1.93;;;26.90;53.20;;;;;;5075796;28;20445;-68
2022/06/13 15:52:46;;;;;;;3.93;2.47;;;26.90;53.50;;;;;;5076040;28;20434;-67
2022/06/13 15:55:18;;;;;;;5.00;2.27;;;26.80;53.60;;;;;;5075675;28;20451;-67
2022/06/13 15:57:49;;;;;;;2.17;1.93;;;26.80;54.20;;;;;;5075842;28;20438;-67
2022/06/13 16:00:31;;;;;;;2.57;2.00;;;26.70;53.50;;;;;;5076077;28;20470;-68
2022/06/13 16:03:01;;;;;;;1.80;1.70;;;26.80;53.00;;;;;;5075977;28;20442;-67
2022/06/13 16:05:30;;;;;;;1.93;1.73;;;26.80;51.30;;;;;;5075449;28;20910;-67
2022/06/13 16:08:00;;;;;;;2.57;2.30;;;26.70;51.40;;;;;;5075186;28;20508;-68
2022/06/13 16:10:31;;;;;;;3.30;2.00;;;26.60;53.20;;;;;;5075670;28;20450;-67
2022/06/13 16:13:02;;;;;;;2.40;2.00;;;26.50;53.50;;;;;;5075508;28;20466;-66
2022/06/13 16:15:32;;;;;;;3.43;2.10;;;26.50;54.20;;;;;;5076093;28;20434;-66
2022/06/13 16:18:00;;;;;;;2.70;2.10;;;26.30;57.10;;;;;;5075692;28;20491;-67
2022/06/13 16:20:29;;;;;;;2.80;1.50;;;26.10;53.80;;;;;;5075150;28;20523;-66
2022/06/13 16:22:59;;;;;;;7.33;2.40;;;26.10;52.80;;;;;;5074986;28;20819;-67
2022/06/13 16:25:29;;;;;;;2.40;2.17;;;26.10;58.00;;;;;;5075279;28;20458;-66
2022/06/13 16:27:58;;;;;;;3.67;2.47;;;26.30;58.70;;;;;;5073958;28;20960;-66
2022/06/13 16:30:31;;;;;;;3.10;2.60;;;26.30;54.50;;;;;;5075407;28;20453;-65
2022/06/13 16:32:59;;;;;;;3.10;1.97;;;26.20;54.60;;;;;;5075343;28;20463;-67
2022/06/13 16:35:40;;;;;;;2.50;1.90;;;26.00;54.50;;;;;;5075884;28;20438;-66
2022/06/13 16:38:12;;;;;;;3.47;2.33;;;25.90;53.30;;;;;;5075037;28;20438;-67
2022/06/13 16:40:44;;;;;;;3.77;2.80;;;25.90;55.40;;;;;;5074923;28;20478;-66
2022/06/13 16:43:24;;;;;;;3.63;2.33;;;25.90;55.80;;;;;;5074946;28;20445;-67
2022/06/13 16:45:59;;;;;;;2.50;2.30;;;25.90;58.00;;;;;;5074493;28;20870;-67
2022/06/13 16:48:26;;;;;;;5.27;2.20;;;25.90;57.50;;;;;;5074850;28;20442;-66
2022/06/13 16:51:04;;;;;;;35.03;12.10;;;25.90;57.00;;;;;;5074778;28;20473;-67
2022/06/13 16:53:32;;;;;;;2.23;2.07;;;25.90;58.40;;;;;;5074700;28;20438;-67
2022/06/13 16:56:01;;;;;;;6.97;4.70;;;25.90;55.70;;;;;;5074593;28;20544;-67
2022/06/13 16:58:31;;;;;;;4.70;4.20;;;25.80;56.60;;;;;;5081015;28;20454;-66
2022/06/13 17:01:02;;;;;;;7.50;6.10;;;25.80;57.00;;;;;;5084241;28;20462;-68
2022/06/13 17:03:59;;;;;;;5.47;4.63;;;25.60;56.40;;;;;;5077367;28;20501;-67
2022/06/13 17:06:39;;;;;;;4.17;2.70;;;25.50;55.30;;;;;;5074438;28;20508;-66
2022/06/13 17:09:11;;;;;;;5.87;3.50;;;25.40;56.10;;;;;;5074561;28;20434;-69
2022/06/13 17:12:03;;;;;;;5.87;4.93;;;25.20;58.90;;;;;;5074349;28;20500;-69
2022/06/13 17:14:46;;;;;;;3.50;2.20;;;25.10;59.80;;;;;;5074249;28;20438;-69
2022/06/13 17:17:15;;;;;;;5.67;2.40;;;24.90;56.90;;;;;;5074233;28;20434;-70
2022/06/13 17:19:45;;;;;;;2.87;2.43;;;24.90;57.90;;;;;;5073946;28;20515;-70
2022/06/13 17:22:13;;;;;;;2.63;1.97;;;24.80;57.30;;;;;;5073968;28;20475;-67
2022/06/13 17:24:41;;;;;;;2.37;2.17;;;24.70;58.20;;;;;;5074189;28;20454;-67
2022/06/13 17:32:39;;;;;;;2.70;2.40;;;24.60;56.00;;;;;;5073579;28;20963;-68
2022/06/13 17:35:06;;;;;;;2.50;2.20;;;24.40;55.50;;;;;;5073764;28;20454;-72
2022/06/13 17:37:33;;;;;;;2.77;2.07;;;24.30;55.50;;;;;;5073495;28;20975;-68
2022/06/13 17:40:00;;;;;;;3.43;2.50;;;24.20;55.50;;;;;;5073529;28;20450;-68
2022/06/13 17:42:28;;;;;;;4.40;2.30;;;24.10;56.60;;;;;;5073602;28;20882;-68